• Join FlightAware (Why Join?)
  • Login
  • US Flag 
03:53PM EDT


 

Airport Tracker/Info


-or-


 

Live Flight TrackerFlight Track Log ✈ N423S ✈ 22-Jul-2013 ✈ KJYR - KDAY

Flight Track Log - Related Links

Times and Time Zones

All times are in EDT time to prevent confusion due to time zone crossing. See the N423S flight status page for this flight to view local times or setup timezone preferences in your user account.

Time Position Orientation Groundspeed Altitude Reporting Facility
EDT Latitude Longitude Course Direction KTS MPH feet Rate Location/Type
10:05AM 40.8669 -97.4664 126° Southeast 114 131 4,300  Level Minneapolis Center
10:05AM 40.8472 -97.4306 126° Southeast 118 136 4,700 480 Climbing Minneapolis Center
10:06AM 40.8469 -97.3864 90° East 111 128 5,200 480 Climbing Minneapolis Center
10:08AM 40.8631 -97.3350 67° East 120 138 5,900 540 Climbing Minneapolis Center
10:09AM 40.8464 -97.2983 121° Southeast 124 143 6,300 540 Climbing Minneapolis Center
10:09AM 40.8464 -97.2600 90° East 118 136 6,800 480 Climbing Minneapolis Center
10:10AM 40.8644 -97.2494 24° Northeast 116 133 7,000 540 Climbing Minneapolis Center
10:11AM 40.8619 -97.1911 93° East 127 146 7,700 600 Climbing Minneapolis Center
10:12AM 40.8611 -97.1456 91° East 127 146 8,300 480 Climbing Minneapolis Center
10:13AM 40.8614 -97.0972 90° East 130 150 8,800 480 Climbing Minneapolis Center
10:14AM 40.8461 -97.0644 122° Southeast 132 152 9,100 240 Climbing Minneapolis Center
10:14AM 40.8608 -97.0481 40° Northeast 132 152 9,100 -120 Level Minneapolis Center
10:15AM 40.8589 -96.9856 92° East 165 190 9,000 -60 Descending Minneapolis Center
10:16AM 40.8572 -96.9208 92° East 174 200 9,000  Level Minneapolis Center
10:17AM 40.8572 -96.8439 90° East 176 203 9,000  Level Minneapolis Center
10:18AM 40.8561 -96.7808 91° East 173 199 9,000  Level Minneapolis Center
10:19AM 40.8544 -96.7164 92° East 174 200 9,000  Level Minneapolis Center
10:20AM 40.8528 -96.6503 92° East 177 204 9,000  Level Minneapolis Center
10:21AM 40.8686 -96.5914 70° East 171 197 9,000  Level Minneapolis Center
10:22AM 40.8653 -96.5294 94° East 172 198 9,000  Level Minneapolis Center
10:23AM 40.8700 -96.4514 85° East 177 204 9,000  Level Minneapolis Center
10:24AM 40.8692 -96.4028 91° East 173 199 9,000  Level Minneapolis Center
10:25AM 40.8664 -96.3264 93° East 172 198 9,000  Level Minneapolis Center
10:26AM 40.8653 -96.2647 91° East 171 197 9,000  Level Minneapolis Center
10:28AM 40.8622 -96.2042 94° East 168 193 9,000  Level Minneapolis Center
10:29AM 40.8603 -96.1300 92° East 168 193 9,000  Level Minneapolis Center
10:30AM 40.8558 -96.0556 94° East 171 197 9,000  Level Minneapolis Center
10:31AM 40.8578 -96.0044 87° East 171 197 9,000  Level Minneapolis Center
10:32AM 40.8561 -95.9314 92° East 171 197 9,000  Level Minneapolis Center
10:33AM 40.8539 -95.8683 93° East 169 194 9,000  Level Minneapolis Center
10:34AM 40.8519 -95.8078 92° East 163 188 9,000  Level Minneapolis Center
10:35AM 40.8497 -95.7419 93° East 168 193 9,000  Level Minneapolis Center
10:36AM 40.8497 -95.6814 90° East 169 194 9,000  Level Minneapolis Center
10:37AM 40.8458 -95.6244 95° East 167 192 9,000  Level Minneapolis Center
10:38AM 40.8431 -95.5531 93° East 165 190 9,000  Level Minneapolis Center
10:39AM 40.8403 -95.4931 93° East 165 190 9,000  Level Minneapolis Center
10:40AM 40.8389 -95.4211 91° East 164 189 9,000  Level Minneapolis Center
10:41AM 40.8356 -95.3603 94° East 165 190 9,000  Level Minneapolis Center
10:42AM 40.8342 -95.3000 92° East 165 190 9,000  Level Minneapolis Center
10:43AM 40.8319 -95.2397 93° East 165 190 9,000  Level Minneapolis Center
10:44AM 40.8297 -95.1789 93° East 166 191 9,000  Level Minneapolis Center
10:46AM 40.8269 -95.1053 93° East 167 192 9,000  Level Minneapolis Center
10:47AM 40.8244 -95.0317 93° East 167 192 9,000  Level Minneapolis Center
10:48AM 40.8222 -94.9692 93° East 170 196 9,000  Level Minneapolis Center
10:49AM 40.8200 -94.9069 93° East 169 194 9,000  Level Minneapolis Center
10:50AM 40.8172 -94.8442 93° East 171 197 9,000  Level Minneapolis Center
10:51AM 40.8153 -94.7811 92° East 171 197 9,000  Level Minneapolis Center
10:52AM 40.8128 -94.7169 93° East 173 199 9,000  Level Minneapolis Center
10:53AM 40.8089 -94.6400 94° East 176 203 9,000  Level Minneapolis Center
10:54AM 40.8056 -94.5756 94° East 176 203 9,000  Level Minneapolis Center
10:55AM 40.8036 -94.5139 92° East 176 203 9,000  Level Minneapolis Center
10:56AM 40.8014 -94.4481 93° East 179 206 9,000  Level Minneapolis Center
10:57AM 40.7986 -94.3831 93° East 179 206 9,000  Level Minneapolis Center
10:58AM 40.7931 -94.3061 95° East 178 205 9,000  Level Minneapolis Center
10:59AM 40.7922 -94.2400 91° East 179 206 9,000  Level Minneapolis Center
11:00AM 40.7900 -94.1747 93° East 181 208 9,000  Level Minneapolis Center
11:01AM 40.7856 -94.1094 95° East 180 207 9,000  Level Minneapolis Center
11:02AM 40.7822 -94.0289 93° East 182 209 9,000  Level Minneapolis Center
11:03AM 40.7803 -93.9614 92° East 185 213 9,000  Level Minneapolis Center
11:04AM 40.7756 -93.8828 95° East 183 211 9,000  Level Minneapolis Center
11:05AM 40.7736 -93.8078 92° East 187 215 9,000  Level Minneapolis Center
11:06AM 40.7703 -93.7367 94° East 183 211 9,000  Level Minneapolis Center
11:07AM 40.7678 -93.6719 93° East 180 207 9,000  Level Minneapolis Center
11:09AM 40.7625 -93.6022 96° East 179 206 9,000  Level Minneapolis Center
11:09AM 40.7608 -93.5806 96° East 180 207 9,000  Level Chicago Center
11:10AM 40.7575 -93.5144 94° East 180 207 9,000  Level Chicago Center
11:11AM 40.7533 -93.4361 94° East 180 207 9,000  Level Chicago Center
11:12AM 40.7497 -93.3703 94° East 181 208 9,000  Level Chicago Center
11:13AM 40.7469 -93.3047 93° East 181 208 9,000  Level Chicago Center
11:14AM 40.7431 -93.2375 94° East 182 209 9,000  Level Chicago Center
11:15AM 40.7397 -93.1714 94° East 183 211 9,000  Level Chicago Center
11:16AM 40.7356 -93.0922 94° East 182 209 9,000  Level Chicago Center
11:17AM 40.7322 -93.0256 94° East 183 211 9,000  Level Chicago Center
11:18AM 40.7283 -92.9597 94° East 182 209 9,000  Level Chicago Center
11:19AM 40.7250 -92.8947 94° East 181 208 9,000  Level Chicago Center
11:20AM 40.7214 -92.8308 94° East 179 206 9,000  Level Chicago Center
11:22AM 40.7161 -92.7406 94° East 177 204 9,000  Level Chicago Center
11:23AM 40.7128 -92.6764 94° East 177 204 9,000  Level Chicago Center
11:24AM 40.7086 -92.6128 95° East 176 203 9,000  Level Chicago Center
11:25AM 40.7047 -92.5486 95° East 176 203 9,000  Level Chicago Center
11:26AM 40.7000 -92.4853 96° East 176 203 9,000  Level Chicago Center
11:27AM 40.6964 -92.4206 94° East 177 204 9,000  Level Chicago Center
11:28AM 40.6906 -92.3439 96° East 177 204 9,000  Level Chicago Center
11:29AM 40.6861 -92.2786 95° East 179 206 9,000  Level Chicago Center
11:30AM 40.6828 -92.2142 94° East 177 204 9,000  Level Chicago Center
11:31AM 40.6792 -92.1497 94° East 177 204 9,000  Level Chicago Center
11:32AM 40.6756 -92.0831 94° East 182 209 9,000  Level Chicago Center
11:33AM 40.6697 -92.0036 96° East 183 211 9,000  Level Chicago Center
11:34AM 40.6661 -91.9378 94° East 183 211 9,000  Level Chicago Center
11:35AM 40.6614 -91.8711 95° East 183 211 9,000  Level Chicago Center
11:36AM 40.6578 -91.8039 94° East 186 214 9,000  Level Chicago Center
11:37AM 40.6542 -91.7372 94° East 184 212 9,000  Level Chicago Center
11:38AM 40.6489 -91.6717 96° East 182 209 9,000  Level Chicago Center
11:39AM 40.6433 -91.5922 95° East 182 209 9,100  Climbing Chicago Center
11:40AM 40.6386 -91.5247 95° East 185 213 9,100  Level Chicago Center
11:41AM 40.6339 -91.4589 95° East 183 211 9,100  Level Chicago Center
11:42AM 40.6306 -91.3931 94° East 182 209 9,100  Level Chicago Center
11:43AM 40.6253 -91.3267 96° East 182 209 9,100  Level Chicago Center
11:44AM 40.6192 -91.2514 96° East 179 206 9,100  Level Kansas City Center
11:45AM 40.6136 -91.1858 96° East 179 206 9,100  Level Kansas City Center
11:46AM 40.6103 -91.1194 94° East 180 207 9,100  Level Chicago Center
11:47AM 40.6053 -91.0544 96° East 179 206 9,100  Level Chicago Center
11:48AM 40.5994 -90.9886 97° East 180 207 9,100  Level Chicago Center
11:50AM 40.5942 -90.9086 95° East 181 208 9,100  Level Chicago Center
11:51AM 40.5889 -90.8425 96° East 182 209 9,100  Level Chicago Center
11:52AM 40.5847 -90.7756 95° East 184 212 9,100  Level Chicago Center
11:53AM 40.5797 -90.7089 96° East 184 212 9,100  Level Chicago Center
11:54AM 40.5753 -90.6411 95° East 186 214 9,100  Level Chicago Center
11:55AM 40.5692 -90.5739 97° East 186 214 9,100  Level Chicago Center
11:56AM 40.5631 -90.4931 96° East 186 214 9,100  Level Chicago Center
11:57AM 40.5586 -90.4264 95° East 185 213 9,100  Level Chicago Center
11:58AM 40.5533 -90.3592 96° East 185 213 9,100  Level Chicago Center
11:59AM 40.5481 -90.2931 96° East 183 211 9,100 -60 Level Chicago Center
12:00PM 40.5428 -90.2272 96° East 182 209 9,000 -60 Descending Chicago Center
12:01PM 40.5367 -90.1478 96° East 183 211 9,000  Level Chicago Center
12:02PM 40.5311 -90.0817 96° East 182 209 9,000  Level Chicago Center
12:03PM 40.5256 -90.0150 96° East 184 212 9,000  Level Chicago Center
12:04PM 40.5197 -89.9483 97° East 185 213 9,000  Level Chicago Center
12:05PM 40.5147 -89.8811 96° East 186 214 9,000  Level Chicago Center
12:06PM 40.5078 -89.8011 96° East 185 213 9,000  Level Chicago Center
12:07PM 40.5022 -89.7342 96° East 186 214 9,000  Level Chicago Center
12:08PM 40.4964 -89.6669 96° East 186 214 9,000  Level Chicago Center
12:09PM 40.4908 -89.6000 96° East 186 214 9,000  Level Chicago Center
12:10PM 40.4858 -89.5344 96° East 184 212 9,000  Level Chicago Center
12:11PM 40.4794 -89.4694 97° East 181 208 9,000  Level Chicago Center
12:12PM 40.4725 -89.3911 97° East 181 208 9,000  Level Chicago Center
12:13PM 40.4669 -89.3267 96° East 179 206 9,000  Level Chicago Center
12:14PM 40.4611 -89.2628 97° East 177 204 9,000  Level Chicago Center
12:15PM 40.4550 -89.1978 97° East 180 207 9,000  Level Chicago Center
12:16PM 40.4500 -89.1336 96° East 178 205 9,000  Level Chicago Center
12:17PM 40.4439 -89.0692 97° East 178 205 9,000  Level Chicago Center
12:18PM 40.4369 -88.9914 97° East 179 206 9,000  Level Chicago Center
12:20PM 40.4311 -88.9269 97° East 178 205 9,000  Level Chicago Center
12:21PM 40.4250 -88.8628 97° East 178 205 9,000  Level Chicago Center
12:22PM 40.4203 -88.7983 95° East 178 205 9,100  Climbing Chicago Center
12:23PM 40.4136 -88.7356 98° East 175 201 9,100  Level Chicago Center
12:24PM 40.4067 -88.6578 97° East 178 205 9,100  Level Chicago Center
12:25PM 40.4011 -88.5933 96° East 178 205 9,100  Level Chicago Center
12:26PM 40.3942 -88.5281 98° East 180 207 9,100  Level Chicago Center
12:27PM 40.3889 -88.4583 96° East 179 206 9,100  Level Chicago Center
12:28PM 40.3828 -88.3969 97° East 172 198 9,100  Level Chicago Center
12:29PM 40.3767 -88.3331 97° East 178 205 9,100  Level Chicago Center
12:30PM 40.3703 -88.2703 98° East 176 203 9,100  Level Chicago Center
12:31PM 40.3639 -88.2072 98° East 176 203 9,100  Level Chicago Center
12:32PM 40.3569 -88.1311 97° East 177 204 9,100  Level Chicago Center
12:33PM 40.3500 -88.0689 98° East 175 201 9,100  Level Chicago Center
12:34PM 40.3444 -88.0033 96° East 180 207 9,100  Level Chicago Center
12:35PM 40.3386 -87.9414 97° East 176 203 9,100  Level Chicago Center
12:36PM 40.3328 -87.8783 97° East 176 203 9,100  Level Chicago Center
12:37PM 40.3244 -87.8042 98° East 175 201 9,100  Level Chicago Center
12:38PM 40.3186 -87.7431 97° East 173 199 9,100  Level Chicago Center
12:39PM 40.3114 -87.6800 99° East 174 200 9,100  Level Chicago Center
12:40PM 40.3053 -87.6167 97° East 175 201 9,100  Level Chicago Center
12:41PM 40.2972 -87.5397 98° East 178 205 9,100  Level Chicago Center
12:42PM 40.2908 -87.4758 97° East 179 206 9,100 -60 Level Chicago Center
12:43PM 40.2842 -87.4125 98° East 175 201 9,000 -60 Descending Chicago Center
12:45PM 40.2736 -87.3331 100° East 174 200 9,000  Level Chicago Center
12:45PM 40.2708 -87.3028 97° East 174 200 9,000  Level Chicago Center
12:46PM 40.2683 -87.2617 95° East 174 200 9,000  Level Chicago Center
12:47PM 40.2617 -87.2006 98° East 172 198 9,000  Level Chicago Center
12:48PM 40.2536 -87.1369 99° East 176 203 9,000  Level Chicago Center
12:49PM 40.2458 -87.0614 98° East 178 205 9,000  Level Chicago Center
12:50PM 40.2394 -86.9975 97° East 177 204 9,000  Level Chicago Center
12:51PM 40.2325 -86.9344 98° East 176 203 9,000  Level Chicago Center
12:52PM 40.2258 -86.8711 98° East 176 203 9,000  Level Chicago Center
12:53PM 40.2186 -86.8089 99° East 175 201 9,000  Level Chicago Center
12:54PM 40.2108 -86.7344 98° East 172 198 9,000  Level Chicago Center
12:55PM 40.2044 -86.6731 98° East 171 197 9,000  Level Chicago Center
12:56PM 40.1967 -86.6122 99° East 170 196 9,000  Level Chicago Center
12:57PM 40.1903 -86.5519 98° East 168 193 9,000  Level Chicago Center
12:58PM 40.1836 -86.4917 98° East 169 194 9,000  Level Chicago Center
12:59PM 40.1764 -86.4317 99° East 167 192 9,000  Level Chicago Center
01:00PM 40.1681 -86.3567 98° East 174 200 9,000  Level Chicago Center
01:01PM 40.1611 -86.2942 98° East 174 200 9,000  Level Chicago Center
01:02PM 40.1539 -86.2303 98° East 177 204 9,000  Level Chicago Center
01:03PM 40.1464 -86.1667 99° East 177 204 9,000  Level Chicago Center
01:04PM 40.1394 -86.1036 98° East 176 203 9,000  Level Chicago Center
01:05PM 40.1314 -86.0425 100° East 173 199 9,000  Level Chicago Center
01:07PM 40.1228 -85.9675 99° East 174 200 9,000  Level Chicago Center